Provisional Data: Sugar Run near Sugar Run, PA


Please select a monitoring station.
Please select start date.
Please select start date.

Toggle Unit: C/F Toggle Unit: C/F
Sample Time Temperature (C) Temperature (F) Specific Conductivity (mS/cm) pH   Turbidity (NTU+) DO (mg/L)
6/3/2022 12:00:00 AM 20.77 69.386 0.137 7.45 8.87 7.57
6/3/2022 12:15:00 AM 20.73 69.314 0.137 7.45 8.66 7.56
6/3/2022 12:30:00 AM 20.7 69.26 0.137 7.45 8.44 7.54
6/3/2022 12:45:00 AM 20.65 69.17 0.137 7.45 9 7.58
6/3/2022 1:00:00 AM 20.63 69.134 0.137 7.44 7.71 7.54
6/3/2022 1:15:00 AM 20.57 69.026 0.137 7.44 9.1 7.57
6/3/2022 1:30:00 AM 20.54 68.972 0.137 7.44 8.73 7.56
6/3/2022 1:45:00 AM 20.51 68.918 0.137 7.42 9 7.53
6/3/2022 2:00:00 AM 20.45 68.81 0.137 7.44 8.32 7.57
6/3/2022 2:15:00 AM 20.43 68.774 0.137 7.43 8.51 7.56
6/3/2022 2:30:00 AM 20.39 68.702 0.137 7.43 7.87 7.54
6/3/2022 2:45:00 AM 20.37 68.666 0.137 7.42 9.19 7.5
6/3/2022 3:00:00 AM 20.32 68.576 0.137 7.43 8.24 7.57
6/3/2022 3:15:00 AM 20.28 68.504 0.137 7.42 8.26 7.56
6/3/2022 3:30:00 AM 20.25 68.45 0.137 7.42 9.09 7.54
6/3/2022 3:45:00 AM 20.21 68.378 0.137 7.42 7.92 7.53
6/3/2022 4:00:00 AM 20.18 68.324 0.137 7.42 8.6 7.56
6/3/2022 4:15:00 AM 20.14 68.252 0.137 7.42 8.59 7.55
6/3/2022 4:30:00 AM 20.1 68.18 0.137 7.41 7.83 7.53
6/3/2022 4:45:00 AM 20.06 68.108 0.137 7.39 7.99 7.55
6/3/2022 5:00:00 AM 20.01 68.018 0.137 7.42 10.35 7.54
6/3/2022 5:15:00 AM 19.96 67.92799 0.137 7.42 8.71 7.57
6/3/2022 5:30:00 AM 19.93 67.874 0.137 7.41 9.69 7.53
6/3/2022 5:45:00 AM 19.88 67.784 0.137 7.41 8.29 7.54
6/3/2022 6:00:00 AM 19.82 67.676 0.137 7.41 8.56 7.6
6/3/2022 6:15:00 AM 19.77 67.586 0.137 7.42 8.34 7.59
6/3/2022 6:30:00 AM 19.68 67.424 0.137 7.41 8.08 7.66
6/3/2022 6:45:00 AM 19.63 67.334 0.137 7.38 9.45 7.58
6/3/2022 7:00:00 AM 19.6 67.28 0.137 7.38 8.03 7.51
6/3/2022 7:15:00 AM 19.52 67.136 0.137 7.39 7.85 7.64
6/3/2022 7:30:00 AM 19.47 67.046 0.137 7.4 8.07 7.62
6/3/2022 7:45:00 AM 19.39 66.902 0.137 7.4 7.43 7.69
6/3/2022 8:00:00 AM 19.37 66.866 0.137 7.4 9.57 7.66
6/3/2022 8:15:00 AM 19.31 66.758 0.137 7.41 7.85 7.62
6/3/2022 8:30:00 AM 19.31 66.758 0.137 7.41 6.85 7.69
6/3/2022 8:45:00 AM 19.3 66.74 0.137 7.41 9.02 7.65
6/3/2022 9:00:00 AM 19.32 66.776 0.137 7.43 9.41 7.82
6/3/2022 9:15:00 AM 19.35 66.83 0.137 7.44 7.03 7.93
6/3/2022 9:30:00 AM 19.41 66.938 0.137 7.44 7.2 7.9
6/3/2022 9:45:00 AM 19.49 67.082 0.137 7.45 6.37 8
6/3/2022 10:00:00 AM 19.6 67.28 0.137 7.46 6.81 7.98
6/3/2022 10:15:00 AM 19.7 67.46 0.137 7.46 7.9 7.97
6/3/2022 10:30:00 AM 19.79 67.622 0.137 7.48 6.75 7.98
6/3/2022 10:45:00 AM 19.97 67.946 0.137 7.5 6.49 8.07
6/3/2022 11:00:00 AM 20.09 68.162 0.137 7.51 6.15 8.07
6/3/2022 11:15:00 AM 20.27 68.486 0.137 7.52 6.62 8.13
6/3/2022 11:30:00 AM 20.52 68.936 0.137 7.54 6.05 8.16
6/3/2022 11:45:00 AM 20.74 69.332 0.137 7.56 5.99 8.2
6/3/2022 12:00:00 PM 21 69.8 0.137 7.56 5.87 8.15
6/3/2022 12:15:00 PM 21.28 70.304 0.137 7.58 5.94 8.15
6/3/2022 12:30:00 PM 21.5 70.7 0.137 7.58 6.01 8.21
6/3/2022 12:45:00 PM 21.85 71.33 0.137 7.6 5.9 8.18
6/3/2022 1:00:00 PM 22.14 71.852 0.137 7.61 5.57 8.18
6/3/2022 1:15:00 PM 22.41 72.338 0.137 7.63 6.84 8.22
6/3/2022 1:30:00 PM 22.63 72.734 0.137 7.64 6.73 8.19
6/3/2022 1:45:00 PM 22.83 73.094 0.137 7.65 5.64 8.16
6/3/2022 2:00:00 PM 22.97 73.346 0.137 7.66 5.81 8.16
6/3/2022 2:15:00 PM 23.12 73.616 0.137 7.67 5.9 8.11
6/3/2022 2:30:00 PM 23.23 73.814 0.137 7.67 5.66 8.07
6/3/2022 2:45:00 PM 23.33 73.994 0.137 7.68 5.89 8.11
6/3/2022 3:00:00 PM 23.43 74.174 0.137 7.68 7.47 8.08
6/3/2022 3:15:00 PM 23.47 74.246 0.137 7.68 5.61 8.05
6/3/2022 3:30:00 PM 23.51 74.318 0.137 7.68 5.59 8.01
6/3/2022 3:45:00 PM 23.47 74.246 0.138 7.67 5.19 7.92
6/3/2022 4:00:00 PM 23.4 74.12 0.138 7.65 5.37 7.88
6/3/2022 4:15:00 PM 23.32 73.976 0.138 7.65 5.38 7.82
6/3/2022 4:30:00 PM 23.16 73.688 0.138 7.64 5.3 7.79
6/3/2022 4:45:00 PM 23.07 73.526 0.138 7.63 5.84 7.75
6/3/2022 5:00:00 PM 23 73.4 0.138 7.62 5.41 7.7
6/3/2022 5:15:00 PM 22.92 73.256 0.138 7.61 5.02 7.63
6/3/2022 5:30:00 PM 22.79 73.022 0.138 7.58 5.79 7.66
6/3/2022 5:45:00 PM 22.68 72.824 0.138 7.59 5.62 7.61
6/3/2022 6:00:00 PM 22.59 72.662 0.138 7.57 5.56 7.6
6/3/2022 6:15:00 PM 22.47 72.446 0.139 7.56 5.6 7.51
6/3/2022 6:30:00 PM 22.36 72.248 0.139 7.54 6.21 7.46
6/3/2022 6:45:00 PM 22.31 72.158 0.139 7.54 6.04 7.45
6/3/2022 7:00:00 PM 22.22 71.996 0.139 7.53 5.63 7.46
6/3/2022 7:15:00 PM 22.13 71.834 0.139 7.52 5.99 7.45
6/3/2022 7:30:00 PM 22.07 71.726 0.139 7.51 5.8 7.37
6/3/2022 7:45:00 PM 21.94 71.492 0.139 7.5 5.68 7.37
6/3/2022 8:00:00 PM 21.86 71.348 0.139 7.49 5.53 7.33
6/3/2022 8:15:00 PM 21.77 71.186 0.139 7.48 5.33 7.29
6/3/2022 8:30:00 PM 21.68 71.024 0.139 7.47 5.23 7.22
6/3/2022 8:45:00 PM 21.57 70.826 0.139 7.46 6.28 7.23
6/3/2022 9:00:00 PM 21.54 70.772 0.139 7.45 5.72 7.19
6/3/2022 9:15:00 PM 21.36 70.448 0.139 7.45 6.17 7.29
6/3/2022 9:30:00 PM 21.27 70.286 0.14 7.44 5.41 7.28
6/3/2022 9:45:00 PM 21.19 70.142 0.14 7.43 5.6 7.22
6/3/2022 10:00:00 PM 21.04 69.872 0.14 7.42 5.67 7.26
6/3/2022 10:15:00 PM 20.9 69.62 0.14 7.43 5.64 7.31
6/3/2022 10:30:00 PM 20.77 69.386 0.14 7.43 5.83 7.36
6/3/2022 10:45:00 PM 20.7 69.26 0.14 7.42 5.58 7.3
6/3/2022 11:00:00 PM 20.59 69.062 0.14 7.41 5.39 7.24
6/3/2022 11:15:00 PM 20.4 68.72 0.14 7.42 6.13 7.41
6/3/2022 11:30:00 PM 20.33 68.594 0.14 7.41 5.86 7.33
6/3/2022 11:45:00 PM 20.18 68.324 0.14 7.41 5.19 7.42
6/4/2022 12:00:00 AM 20.1 68.18 0.14 7.4 4.93 7.35
6/4/2022 12:15:00 AM 19.93 67.874 0.14 7.41 6.12 7.45
6/4/2022 12:30:00 AM 19.87 67.766 0.14 7.39 4.97 7.38
6/4/2022 12:45:00 AM 19.67 67.406 0.14 7.4 5.46 7.52
6/4/2022 1:00:00 AM 19.56 67.208 0.14 7.4 5.37 7.55
6/4/2022 1:15:00 AM 19.48 67.064 0.14 7.4 5.36 7.53
6/4/2022 1:30:00 AM 19.39 66.902 0.14 7.39 5.53 7.5
6/4/2022 1:45:00 AM 19.32 66.776 0.14 7.39 5.42 7.48
6/4/2022 2:00:00 AM 19.21 66.578 0.14 7.37 5.63 7.53
6/4/2022 2:15:00 AM 19.04 66.272 0.14 7.37 5.51 7.61
6/4/2022 2:30:00 AM 19 66.2 0.14 7.35 5.86 7.57
6/4/2022 2:45:00 AM 18.85 65.93 0.14 7.34 5.51 7.66
6/4/2022 3:00:00 AM 18.76 65.768 0.14 7.35 5.86 7.67
6/4/2022 3:15:00 AM 18.7 65.66 0.14 7.35 5.92 7.66
6/4/2022 3:30:00 AM 18.66 65.588 0.14 7.34 5.36 7.58
6/4/2022 3:45:00 AM 18.5 65.3 0.14 7.35 5.1 7.72
6/4/2022 4:00:00 AM 18.48 65.264 0.14 7.34 5.38 7.68
6/4/2022 4:15:00 AM 18.42 65.156 0.14 7.34 5.56 7.64
6/4/2022 4:30:00 AM 18.32 64.976 0.14 7.34 5.54 7.67
6/4/2022 4:45:00 AM 18.24 64.832 0.14 7.34 5.13 7.69
6/4/2022 5:00:00 AM 18.14 64.652 0.14 7.34 5.85 7.73
6/4/2022 5:15:00 AM 18.06 64.508 0.14 7.34 5.36 7.76
6/4/2022 5:30:00 AM 17.99 64.382 0.14 7.34 5.3 7.78
6/4/2022 5:45:00 AM 17.96 64.328 0.141 7.34 5.55 7.66
6/4/2022 6:00:00 AM 17.87 64.166 0.141 7.34 5.45 7.68
6/4/2022 6:15:00 AM 17.79 64.022 0.141 7.34 5.38 7.76
6/4/2022 6:30:00 AM 17.82 64.076 0.141 7.31 6.01 7.66
6/4/2022 6:45:00 AM 17.7 63.86 0.141 7.34 4.96 7.71
6/4/2022 7:00:00 AM 17.72 63.896 0.141 7.34 5.08 7.64
6/4/2022 7:15:00 AM 17.61 63.698 0.141 7.36 5.34 7.82
6/4/2022 7:30:00 AM 17.61 63.698 0.141 7.36 4.9 7.83
6/4/2022 7:45:00 AM 17.6 63.68 0.141 7.36 5.33 7.93
6/4/2022 8:00:00 AM 17.59 63.662 0.141 7.38 9.17 7.93
6/4/2022 8:15:00 AM 17.64 63.752 0.141 7.38 4.48 7.94
6/4/2022 8:30:00 AM 17.69 63.842 0.141 7.38 4.27 7.85
6/4/2022 8:45:00 AM 17.73 63.914 0.141 7.39 4.68 7.93
6/4/2022 9:00:00 AM 17.75 63.95 0.141 7.4 4.34 7.98
6/4/2022 9:15:00 AM 17.84 64.112 0.141 7.41 4.51 8
6/4/2022 9:30:00 AM 17.98 64.364 0.141 7.43 4.71 8.17
6/4/2022 9:45:00 AM 18.12 64.616 0.141 7.42 4.48 8.14
6/4/2022 10:00:00 AM 18.33 64.994 0.141 7.46 4.26 8.22
6/4/2022 10:15:00 AM 18.48 65.264 0.141 7.47 4.06 8.24
6/4/2022 10:30:00 AM 18.69 65.642 0.141 7.47 4.46 8.28
6/4/2022 10:45:00 AM 18.93 66.074 0.141 7.5 3.89 8.25
6/4/2022 11:00:00 AM 19.14 66.452 0.141 7.48 3.63 8.27
6/4/2022 11:15:00 AM 19.43 66.974 0.141 7.52 4 8.31
6/4/2022 11:30:00 AM 19.71 67.478 0.141 7.53 4.14 8.34
6/4/2022 11:45:00 AM 19.99 67.982 0.141 7.54 4.08 8.32
6/4/2022 12:00:00 PM 20.26 68.468 0.141 7.55 3.9 8.3
6/4/2022 12:15:00 PM 20.65 69.17 0.141 7.57 4.24 8.36
6/4/2022 12:30:00 PM 20.91 69.638 0.141 7.55 3.75 8.31
6/4/2022 12:45:00 PM 21.26 70.268 0.141 7.59 3.84 8.3
6/4/2022 1:00:00 PM 21.59 70.862 0.141 7.59 4.34 8.27
6/4/2022 1:15:00 PM 21.91 71.438 0.141 7.61 4.09 8.25
6/4/2022 1:30:00 PM 22.18 71.924 0.141 7.61 3.79 8.24
6/4/2022 1:45:00 PM 22.48 72.464 0.141 7.62 3.68 8.24
6/4/2022 2:00:00 PM 22.72 72.896 0.141 7.63 4.04 8.21
6/4/2022 2:15:00 PM 22.95 73.31 0.142 7.64 3.68 8.18
6/4/2022 2:30:00 PM 23.1 73.58 0.142 7.65 4.9 8.17
6/4/2022 2:45:00 PM 23.24 73.832 0.142 7.65 3.92 8.08
6/4/2022 3:00:00 PM 23.37 74.066 0.142 7.66 3.99 8.11
6/4/2022 3:15:00 PM 23.44 74.192 0.142 7.65 4.29 8.07
6/4/2022 3:30:00 PM 23.44 74.192 0.142 7.64 3.77 7.94
6/4/2022 3:45:00 PM 23.45 74.21 0.142 7.66 4.05 8
6/4/2022 4:00:00 PM 23.35 74.03 0.142 7.64 3.84 7.87
6/29/2022 11:45:00 AM 20.36 68.648 0.159 7.33 5.46 8.13
6/29/2022 12:00:00 PM 20.45 68.81 0.157 7.31 1.78 8.06
6/29/2022 12:15:00 PM 20.69 69.242 0.156 7.31 1.97 8.1
6/29/2022 12:30:00 PM 20.92 69.656 0.156 7.31 1.58 8.13
6/29/2022 12:45:00 PM 21.15 70.07 0.156 7.32 2.26 8.17
6/29/2022 1:00:00 PM 21.46 70.628 0.155 7.33 1.5 8.2
6/29/2022 1:15:00 PM 21.71 71.078 0.155 7.35 1.6 8.27
6/29/2022 1:30:00 PM 21.95 71.51 0.155 7.37 1.74 8.34
6/29/2022 1:45:00 PM 22.22 71.996 0.155 7.4 1.78 8.4
6/29/2022 2:00:00 PM 22.51 72.518 0.155 7.42 1.46 8.47
6/29/2022 2:15:00 PM 22.72 72.896 0.155 7.45 1.66 8.54
6/29/2022 2:30:00 PM 22.77 72.986 0.154 7.45 1.59 8.56
6/29/2022 2:45:00 PM 22.83 73.094 0.154 7.46 1.61 8.62
6/29/2022 3:00:00 PM 22.94 73.292 0.154 7.48 1.89 8.68
6/29/2022 3:15:00 PM 22.96 73.328 0.154 7.51 1.94 8.68
6/29/2022 3:30:00 PM 23.09 73.562 0.154 7.54 1.45 8.66
6/29/2022 3:45:00 PM 23.13 73.634 0.154 7.55 1.77 8.65
6/29/2022 4:00:00 PM 23.23 73.814 0.154 7.57 1.62 8.61
6/29/2022 4:15:00 PM 23.29 73.922 0.154 7.59 1.61 8.62
6/29/2022 4:30:00 PM 23.31 73.958 0.154 7.63 1.72 8.64
6/29/2022 4:45:00 PM 23.3 73.94 0.154 7.62 1.61 8.6
6/29/2022 5:00:00 PM 23.33 73.994 0.154 7.6 1.84 8.44
6/29/2022 5:15:00 PM 23.24 73.832 0.154 7.6 1.68 8.28
6/29/2022 5:30:00 PM 23.22 73.796 0.154 7.61 1.98 8.22
6/29/2022 5:45:00 PM 23.25 73.85 0.154 7.61 1.6 8.15
6/29/2022 6:00:00 PM 23.25 73.85 0.154 7.59 1.86 7.95
6/29/2022 6:15:00 PM 23.19 73.742 0.155 7.57 1.91 7.8
6/29/2022 6:30:00 PM 23.11 73.598 0.155 7.55 2.4 7.73
6/29/2022 6:45:00 PM 23.08 73.544 0.155 7.53 1.83 7.56
6/29/2022 7:00:00 PM 23.01 73.418 0.156 7.5 2.11 7.41
6/29/2022 7:15:00 PM 22.93 73.274 0.156 7.47 1.81 7.24
6/29/2022 7:30:00 PM 22.91 73.238 0.156 7.46 1.87 7.2
6/29/2022 7:45:00 PM 22.84 73.112 0.156 7.46 2.01 7.13
6/29/2022 8:00:00 PM 22.73 72.914 0.157 7.44 2.04 7.05
6/29/2022 8:15:00 PM 22.63 72.734 0.157 7.43 2.2 6.96
6/29/2022 8:30:00 PM 22.47 72.446 0.157 7.41 2.71 6.8
6/29/2022 8:45:00 PM 22.36 72.248 0.158 7.39 2.23 6.73
6/29/2022 9:00:00 PM 22.23 72.014 0.158 7.38 2.35 6.7
6/29/2022 9:15:00 PM 22.13 71.834 0.158 7.37 2.52 6.67
6/29/2022 9:30:00 PM 21.99 71.582 0.158 7.36 2.6 6.63
6/29/2022 9:45:00 PM 21.88 71.384 0.158 7.36 2.29 6.61
6/29/2022 10:00:00 PM 21.79 71.222 0.158 7.35 2.93 6.59
6/29/2022 10:15:00 PM 21.69 71.042 0.158 7.35 2.61 6.61
6/29/2022 10:30:00 PM 21.61 70.898 0.158 7.34 2.69 6.6
6/29/2022 10:45:00 PM 21.53 70.754 0.158 7.33 2.71 6.61
6/29/2022 11:00:00 PM 21.47 70.646 0.158 7.33 2.87 6.62
6/29/2022 11:15:00 PM 21.4 70.52 0.158 7.33 2.54 6.65
6/29/2022 11:30:00 PM 21.34 70.412 0.158 7.33 2.83 6.67
6/29/2022 11:45:00 PM 21.31 70.358 0.158 7.34 2.81 6.67
6/30/2022 12:00:00 AM 21.27 70.286 0.158 7.33 2.89 6.67
6/30/2022 12:15:00 AM 21.21 70.17799 0.158 7.33 3.03 6.71
6/30/2022 12:30:00 AM 21.16 70.088 0.158 7.33 2.74 6.71
6/30/2022 12:45:00 AM 21.13 70.034 0.158 7.33 3.18 6.72
6/30/2022 1:00:00 AM 21.08 69.944 0.158 7.33 2.88 6.74
6/30/2022 1:15:00 AM 21.03 69.854 0.158 7.32 2.73 6.73
6/30/2022 1:30:00 AM 20.98 69.764 0.158 7.32 2.78 6.76
6/30/2022 1:45:00 AM 20.93 69.674 0.158 7.32 2.86 6.77
6/30/2022 2:00:00 AM 20.88 69.584 0.158 7.32 2.94 6.79
6/30/2022 2:15:00 AM 20.82 69.476 0.158 7.32 2.84 6.79
6/30/2022 2:30:00 AM 20.75 69.35 0.159 7.32 2.86 6.82
6/30/2022 2:45:00 AM 20.68 69.224 0.159 7.32 2.96 6.82
6/30/2022 3:00:00 AM 20.65 69.17 0.159 7.32 2.98 6.82
6/30/2022 3:15:00 AM 20.57 69.026 0.159 7.32 2.85 6.84
6/30/2022 3:30:00 AM 20.5 68.9 0.159 7.32 2.85 6.86
6/30/2022 3:45:00 AM 20.45 68.81 0.159 7.31 3.12 6.84
6/30/2022 4:00:00 AM 20.35 68.63 0.159 7.31 2.95 6.88
6/30/2022 4:15:00 AM 20.29 68.522 0.159 7.31 3.33 6.9
6/30/2022 4:30:00 AM 20.21 68.378 0.159 7.31 3.24 6.93
6/30/2022 4:45:00 AM 20.14 68.252 0.159 7.31 3.31 6.93
6/30/2022 5:00:00 AM 20.08 68.144 0.159 7.31 3.08 6.93
6/30/2022 5:15:00 AM 19.98 67.964 0.159 7.3 3.37 6.97
6/30/2022 5:30:00 AM 19.92 67.856 0.159 7.3 3.42 6.96
6/30/2022 5:45:00 AM 19.83 67.694 0.159 7.3 3.92 6.99
6/30/2022 6:00:00 AM 19.76 67.568 0.159 7.28 3.26 7.01
6/30/2022 6:15:00 AM 19.69 67.442 0.159 7.28 3 7.04
6/30/2022 6:30:00 AM 19.63 67.334 0.159 7.28 3.5 7.08
6/30/2022 6:45:00 AM 19.59 67.262 0.158 7.28 3.04 7.1
6/30/2022 7:00:00 AM 19.53 67.154 0.158 7.29 3.35 7.17
6/30/2022 7:15:00 AM 19.49 67.082 0.158 7.29 3.5 7.22
6/30/2022 7:30:00 AM 19.46 67.028 0.158 7.3 3.54 7.3
6/30/2022 7:45:00 AM 19.45 67.01 0.158 7.31 3.82 7.38
6/30/2022 8:00:00 AM 19.43 66.974 0.158 7.32 3.37 7.44
6/30/2022 8:15:00 AM 19.44 66.992 0.158 7.32 3.55 7.46
6/30/2022 8:30:00 AM 19.46 67.028 0.158 7.33 3.19 7.54
6/30/2022 8:45:00 AM 19.5 67.1 0.158 7.34 3.17 7.58
6/30/2022 9:00:00 AM 19.54 67.172 0.158 7.35 3.38 7.57
6/30/2022 9:15:00 AM 19.59 67.262 0.158 7.35 3.36 7.59
6/30/2022 9:30:00 AM 19.66 67.388 0.157 7.36 3.29 7.69
6/30/2022 9:45:00 AM 19.77 67.586 0.157 7.38 2.78 7.84
6/30/2022 10:00:00 AM 19.95 67.91 0.157 7.39 3.73 8.01
6/30/2022 10:15:00 AM 20.1 68.18 0.156 7.42 2.86 8.09
6/30/2022 10:30:00 AM 20.32 68.576 0.156 7.46 2.94 8.21
6/30/2022 10:45:00 AM 20.5 68.9 0.156 7.46 2.6 8.28
6/30/2022 11:00:00 AM 20.7 69.26 0.156 7.5 2.59 8.38
6/30/2022 11:15:00 AM 20.97 69.746 0.156 7.54 2.94 8.46
6/30/2022 11:30:00 AM 21.18 70.124 0.155 7.56 2.67 8.53
6/30/2022 11:45:00 AM 21.46 70.628 0.155 7.59 2.8 8.6
6/30/2022 12:00:00 PM 21.76 71.168 0.155 7.63 3.01 8.68
6/30/2022 12:15:00 PM 22.04 71.672 0.155 7.68 2.82 8.76
6/30/2022 12:30:00 PM 22.33 72.194 0.155 7.71 2.77 8.82
6/30/2022 12:45:00 PM 22.69 72.842 0.155 7.78 2.63 8.89
6/30/2022 1:00:00 PM 23.02 73.436 0.154 7.8 2.95 8.95
6/30/2022 1:15:00 PM 23.36 74.048 0.154 7.87 2.71 8.98
6/30/2022 1:30:00 PM 23.67 74.606 0.154 7.9 2.81 8.99
6/30/2022 1:45:00 PM 23.98 75.164 0.154 7.97 2.45 9.02
6/30/2022 2:00:00 PM 24.32 75.776 0.154 8.04 2.81 9.04
6/30/2022 2:15:00 PM 24.5 76.1 0.154 8.05 2.82 8.99
6/30/2022 2:30:00 PM 24.8 76.64 0.154 8.14 2.44 8.98
6/30/2022 2:45:00 PM 25.03 77.054 0.154 8.18 3.07 8.95
6/30/2022 3:00:00 PM 25.19 77.342 0.154 8.21 2.62 8.94
6/30/2022 3:15:00 PM 25.35 77.63 0.154 8.23 2.74 8.91
6/30/2022 3:30:00 PM 25.28 77.504 0.154 8.23 3.08 8.82
6/30/2022 3:45:00 PM 25.25 77.45 0.154 8.19 2.76 8.67
6/30/2022 4:00:00 PM 25.29 77.522 0.154 8.18 2.76 8.58
6/30/2022 4:15:00 PM 25.25 77.45 0.154 8.14 2.64 8.4
6/30/2022 4:30:00 PM 25.17 77.306 0.154 8.1 2.69 8.35
6/30/2022 4:45:00 PM 25.07 77.126 0.155 8.04 2.78 8.17
6/30/2022 5:00:00 PM 25.03 77.054 0.155 7.99 2.8 8.07
6/30/2022 5:15:00 PM 24.92 76.856 0.155 7.93 2.67 7.96
6/30/2022 5:30:00 PM 24.84 76.712 0.155 7.88 2.96 7.88
6/30/2022 5:45:00 PM 24.73 76.514 0.155 7.82 2.73 7.75
6/30/2022 6:00:00 PM 24.71 76.478 0.155 7.8 2.89 7.7
6/30/2022 6:15:00 PM 24.62 76.316 0.156 7.75 2.97 7.59
6/30/2022 6:30:00 PM 24.52 76.136 0.156 7.71 2.95 7.47
6/30/2022 6:45:00 PM 24.43 75.974 0.156 7.67 2.92 7.38
6/30/2022 7:00:00 PM 24.36 75.848 0.156 7.64 2.73 7.29
6/30/2022 7:15:00 PM 24.28 75.704 0.157 7.61 2.8 7.2
6/30/2022 7:30:00 PM 24.15 75.47 0.157 7.56 2.8 7.08
6/30/2022 7:45:00 PM 24.06 75.308 0.157 7.54 3.38 6.96
6/30/2022 8:00:00 PM 23.97 75.146 0.157 7.51 3.08 6.89
6/30/2022 8:15:00 PM 23.87 74.966 0.157 7.48 3.3 6.78
6/30/2022 8:30:00 PM 23.75 74.75 0.158 7.45 3.55 6.66
6/30/2022 8:45:00 PM 23.65 74.57 0.158 7.43 2.8 6.57
6/30/2022 9:00:00 PM 23.57 74.426 0.158 7.41 2.82 6.48
6/30/2022 9:15:00 PM 23.48 74.264 0.158 7.39 3.05 6.41
6/30/2022 9:30:00 PM 23.4 74.12 0.158 7.37 2.84 6.36
6/30/2022 9:45:00 PM 23.32 73.976 0.158 7.36 2.84 6.31
6/30/2022 10:00:00 PM 23.25 73.85 0.158 7.35 2.87 6.29
6/30/2022 10:15:00 PM 23.16 73.688 0.158 7.34 3.59 6.25
6/30/2022 10:30:00 PM 23.12 73.616 0.158 7.33 2.94 6.22
6/30/2022 10:45:00 PM 23.01 73.418 0.158 7.32 3.32 6.2
6/30/2022 11:00:00 PM 22.94 73.292 0.157 7.31 2.88 6.21
6/30/2022 11:15:00 PM 22.87 73.166 0.157 7.31 2.73 6.2
6/30/2022 11:30:00 PM 22.8 73.04 0.157 7.3 2.72 6.2
6/30/2022 11:45:00 PM 22.72 72.896 0.157 7.3 2.75 6.19
7/1/2022 12:00:00 AM 22.65 72.77 0.157 7.29 2.69 6.21
7/1/2022 12:15:00 AM 22.58 72.644 0.157 7.29 2.83 6.2
7/1/2022 12:30:00 AM 22.48 72.464 0.157 7.28 2.82 6.21
7/1/2022 12:45:00 AM 22.42 72.356 0.157 7.28 2.88 6.19
7/1/2022 1:00:00 AM 22.32 72.176 0.157 7.27 2.86 6.2
7/1/2022 1:15:00 AM 22.25 72.05 0.157 7.26 2.86 6.21
7/1/2022 1:30:00 AM 22.17 71.906 0.157 7.26 2.78 6.21
7/1/2022 1:45:00 AM 22.06 71.708 0.156 7.26 2.65 6.21
7/1/2022 2:00:00 AM 22 71.6 0.156 7.26 2.83 6.21
7/1/2022 2:15:00 AM 21.91 71.438 0.156 7.25 2.77 6.22
7/1/2022 2:30:00 AM 21.81 71.258 0.156 7.25 2.73 6.23
7/1/2022 2:45:00 AM 21.73 71.114 0.156 7.25 2.94 6.24
7/1/2022 3:00:00 AM 21.66 70.988 0.156 7.24 2.97 6.22
7/1/2022 3:15:00 AM 21.56 70.808 0.156 7.24 2.75 6.23
7/1/2022 3:30:00 AM 21.48 70.664 0.156 7.24 2.76 6.25
7/1/2022 3:45:00 AM 21.4 70.52 0.156 7.24 2.74 6.25
7/1/2022 4:00:00 AM 21.32 70.376 0.156 7.23 2.95 6.26
7/1/2022 4:15:00 AM 21.22 70.196 0.156 7.23 3.14 6.28
7/1/2022 4:30:00 AM 21.16 70.088 0.156 7.23 2.89 6.28
7/1/2022 4:45:00 AM 21.06 69.908 0.156 7.22 2.81 6.28
7/1/2022 5:00:00 AM 21 69.8 0.156 7.22 2.83 6.29
7/1/2022 5:15:00 AM 20.95 69.71 0.156 7.22 2.99 6.28
7/1/2022 5:30:00 AM 20.88 69.584 0.156 7.22 3.18 6.27
7/1/2022 5:45:00 AM 20.81 69.458 0.156 7.21 2.96 6.27
7/1/2022 6:00:00 AM 20.71 69.278 0.155 7.21 2.98 6.3
7/1/2022 6:15:00 AM 20.65 69.17 0.155 7.21 2.89 6.3
7/1/2022 6:30:00 AM 20.58 69.044 0.155 7.21 3.41 6.33
7/1/2022 6:45:00 AM 20.53 68.954 0.155 7.21 3.23 6.36
7/1/2022 7:00:00 AM 20.47 68.846 0.155 7.2 3.22 6.39
7/1/2022 7:15:00 AM 20.42 68.756 0.155 7.2 3.02 6.43
7/1/2022 7:30:00 AM 20.41 68.738 0.155 7.21 3.07 6.48
7/1/2022 7:45:00 AM 20.4 68.72 0.155 7.21 2.79 6.55
7/1/2022 8:00:00 AM 20.41 68.738 0.154 7.21 2.83 6.64
7/1/2022 8:15:00 AM 20.43 68.774 0.154 7.22 2.93 6.73
7/1/2022 8:30:00 AM 20.45 68.81 0.154 7.23 2.82 6.77
7/1/2022 8:45:00 AM 20.49 68.882 0.154 7.23 2.88 6.8
7/1/2022 9:00:00 AM 20.54 68.972 0.154 7.23 2.71 6.82
7/1/2022 9:15:00 AM 20.59 69.062 0.154 7.23 3.04 6.77
7/1/2022 9:30:00 AM 20.64 69.152 0.154 7.25 2.8 6.9
7/1/2022 9:45:00 AM 20.75 69.35 0.153 7.26 2.81 7.06
7/1/2022 10:00:00 AM 20.93 69.674 0.152 7.28 2.41 7.36
7/1/2022 10:15:00 AM 21.11 69.998 0.152 7.31 2.53 7.52
7/1/2022 10:30:00 AM 21.25 70.25 0.152 7.32 2.75 7.61
7/1/2022 10:45:00 AM 21.42 70.556 0.152 7.34 2.63 7.7
7/1/2022 11:00:00 AM 21.62 70.916 0.151 7.35 2.43 7.79
7/1/2022 11:15:00 AM 21.78 71.204 0.151 7.37 2.93 7.93
7/1/2022 11:30:00 AM 21.95 71.51 0.15 7.39 2.75 8
7/1/2022 11:45:00 AM 22.19 71.942 0.15 7.41 2.74 8.11
7/1/2022 12:00:00 PM 22.47 72.446 0.15 7.44 2.41 8.17
7/1/2022 12:15:00 PM 22.74 72.932 0.149 7.47 2.52 8.25
7/1/2022 12:30:00 PM 23 73.4 0.149 7.49 2.65 8.36
7/1/2022 12:45:00 PM 23.29 73.922 0.149 7.5 2.6 8.44
7/1/2022 1:00:00 PM 23.56 74.408 0.148 7.55 2.52 8.56
7/1/2022 1:15:00 PM 23.67 74.606 0.148 7.59 2.59 8.56
7/1/2022 1:30:00 PM 23.78 74.804 0.148 7.59 2.6 8.58
7/1/2022 1:45:00 PM 24.11 75.398 0.147 7.65 2.79 8.58
7/1/2022 2:00:00 PM 24.31 75.758 0.147 7.68 2.61 8.59
7/1/2022 2:15:00 PM 24.49 76.082 0.147 7.7 2.73 8.62
7/1/2022 2:30:00 PM 24.67 76.406 0.147 7.74 2.57 8.61
7/1/2022 2:45:00 PM 24.87 76.766 0.147 7.78 2.51 8.63
7/1/2022 3:00:00 PM 24.99 76.982 0.147 7.79 2.44 8.6
7/1/2022 3:15:00 PM 25.25 77.45 0.147 7.78 2.53 8.53
7/1/2022 3:30:00 PM 25.33 77.594 0.147 7.82 2.6 8.53
7/1/2022 3:45:00 PM 25.53 77.954 0.147 7.83 2.79 8.47
7/1/2022 4:00:00 PM 25.61 78.098 0.147 7.85 2.38 8.47
7/1/2022 4:15:00 PM 25.76 78.368 0.147 7.85 2.48 8.34
7/1/2022 4:30:00 PM 25.65 78.17 0.147 7.84 2.64 8.11
7/1/2022 4:45:00 PM 25.68 78.224 0.147 7.81 2.47 7.93
7/1/2022 5:00:00 PM 25.53 77.954 0.147 7.78 2.61 7.83
7/1/2022 5:15:00 PM 25.56 78.008 0.148 7.74 2.46 7.57
7/1/2022 5:30:00 PM 25.47 77.846 0.148 7.68 2.41 7.4
7/1/2022 5:45:00 PM 25.46 77.828 0.148 7.65 2.4 7.23
7/1/2022 6:00:00 PM 25.34 77.612 0.148 7.62 2.44 7.2
7/1/2022 6:15:00 PM 25.3 77.54 0.148 7.6 2.5 7.14
7/1/2022 6:30:00 PM 25.21 77.378 0.149 7.58 2.49 7.06
7/1/2022 6:45:00 PM 25.12 77.216 0.149 7.55 2.64 6.97
7/1/2022 7:00:00 PM 25.02 77.036 0.149 7.51 2.93 6.87
7/1/2022 7:15:00 PM 24.91 76.838 0.149 7.48 2.44 6.73
7/1/2022 7:30:00 PM 24.78 76.604 0.15 7.45 2.59 6.6
7/1/2022 7:45:00 PM 24.67 76.406 0.15 7.42 2.36 6.45
7/1/2022 8:00:00 PM 24.56 76.208 0.15 7.39 2.41 6.3
7/1/2022 8:15:00 PM 24.49 76.082 0.15 7.37 2.67 6.24
7/1/2022 8:30:00 PM 24.4 75.92 0.15 7.35 2.55 6.12
7/1/2022 8:45:00 PM 24.3 75.74 0.151 7.33 2.67 6.01
7/1/2022 9:00:00 PM 24.23 75.614 0.151 7.31 2.61 5.86
7/1/2022 9:15:00 PM 24.11 75.398 0.15 7.31 3 5.82
7/1/2022 9:30:00 PM 23.99 75.182 0.149 7.29 2.93 5.91
7/1/2022 9:45:00 PM 23.82 74.876 0.147 7.3 3.58 6.02
7/1/2022 10:00:00 PM 23.54 74.372 1.077 7.31 5.93 6.31
7/1/2022 10:15:00 PM 23.31 73.958 0.833 7.34 23.83 6.56
7/1/2022 10:30:00 PM 23.28 73.904 0.327 7.36 17.93 6.56
7/1/2022 10:45:00 PM 23.13 73.634 0.415 7.37 41.21 6.66
7/1/2022 11:00:00 PM 22.99 73.382 0.221 7.37 224.32 6.66
7/1/2022 11:15:00 PM 22.91 73.238 0.206 7.35 189.9 6.66
7/1/2022 11:30:00 PM 22.86 73.148 0.434 7.34 200.97 6.6
7/1/2022 11:45:00 PM 22.81 73.058 0.561 7.32 183.73 6.55
7/2/2022 12:00:00 AM 22.79 73.022 0.805 7.31 156.92 6.5
7/2/2022 12:15:00 AM 22.74 72.932 0.126 7.32 107.53 6.54
7/2/2022 12:30:00 AM 22.66 72.788 0.773 7.33 82.39 6.66
7/2/2022 12:45:00 AM 22.53 72.554 0.543 7.36 72.02 6.8
7/2/2022 1:00:00 AM 22.41 72.338 0.122 7.37 107.8 7.01
7/2/2022 1:15:00 AM 22.17 71.906 0.117 7.38 248.54 7.15
7/2/2022 1:30:00 AM 22.09 71.762 0.114 7.37 173.27 7.18
7/2/2022 1:45:00 AM 21.96 71.528 0.108 7.35 197.83 7.22
7/2/2022 2:00:00 AM 21.93 71.474 0.108 7.35 134.56 7.26
7/2/2022 2:15:00 AM 22 71.6 0.111 7.38 76.25 7.4
7/2/2022 2:30:00 AM 22.13 71.834 0.113 7.43 125.19 7.56
7/2/2022 2:45:00 AM 22.16 71.888 0.119 7.48 153.9 7.78
7/2/2022 3:00:00 AM 22.22 71.996 0.126 7.49 126.82 7.88
7/2/2022 3:15:00 AM 22.41 72.338 0.134 7.45 94.6 7.76
7/2/2022 3:30:00 AM 22.69 72.842 0.137 7.43 73.14 7.66
7/2/2022 3:45:00 AM 22.88 73.184 0.135 7.44 72.36 7.65
7/2/2022 4:00:00 AM 22.65 72.77 0.133 7.43 69.91 7.7
7/2/2022 4:15:00 AM 22.37 72.266 0.136 7.41 65.18 7.73
7/2/2022 4:30:00 AM 22.13 71.834 0.136 7.4 75.83 7.76
7/2/2022 4:45:00 AM 21.73 71.114 0.134 7.4 93.2 7.82
7/2/2022 5:00:00 AM 21.38 70.484 0.131 7.41 106.04 7.91
7/2/2022 5:15:00 AM 21.24 70.232 0.13 7.41 109.7 7.95
7/2/2022 5:30:00 AM 21.16 70.088 0.127 7.4 117.95 7.97
7/2/2022 5:45:00 AM 21 69.8 0.12 7.37 145.55 7.98
7/2/2022 6:00:00 AM 20.78 69.404 0.112 7.3 185.83 8.01
7/2/2022 6:15:00 AM 20.55 68.99 0.104 7.25 221.36 8.06
7/2/2022 6:30:00 AM 20.35 68.63 0.099 7.21 227.18 8.1
7/2/2022 6:45:00 AM 20.2 68.36 0.097 7.19 233.95 8.13
7/2/2022 7:00:00 AM 20.1 68.18 0.096 7.19 205.29 8.16
7/2/2022 7:15:00 AM 20.03 68.054 0.096 7.2 185.38 8.18
7/2/2022 7:30:00 AM 20.01 68.018 0.097 7.21 158.06 8.18
7/2/2022 7:45:00 AM 20.01 68.018 0.099 7.23 137.19 8.18
7/2/2022 8:00:00 AM 20.04 68.07201 0.1 7.25 126.44 8.18
7/2/2022 8:15:00 AM 20.05 68.09 0.102 7.27 115.96 8.18
7/2/2022 8:30:00 AM 20.06 68.108 0.102 7.28 107.52 8.18
7/2/2022 8:45:00 AM 20.08 68.144 0.102 7.3 101.48 8.18
7/2/2022 9:00:00 AM 20.1 68.18 0.102 7.31 98.74 8.19
7/2/2022 9:15:00 AM 20.12 68.216 0.103 7.31 94.63 8.19
7/2/2022 9:30:00 AM 20.14 68.252 0.103 7.32 89.56 8.2
7/2/2022 9:45:00 AM 20.18 68.324 0.103 7.32 88.94 8.2
7/2/2022 10:00:00 AM 20.26 68.468 0.104 7.33 87.36 8.2
7/2/2022 10:15:00 AM 20.34 68.612 0.104 7.34 81.09 8.2
7/2/2022 10:30:00 AM 20.39 68.702 0.105 7.34 85.05 8.19
7/2/2022 10:45:00 AM 20.54 68.972 0.106 7.35 72.29 8.2
7/2/2022 11:00:00 AM 20.6 69.08 0.106 7.36 66.3 8.19
7/2/2022 11:15:00 AM 20.78 69.404 0.106 7.37 67.05 8.19
7/2/2022 11:30:00 AM 20.88 69.584 0.106 7.37 66.53 8.18
7/2/2022 11:45:00 AM 21 69.8 0.106 7.38 65.51 8.17
7/2/2022 12:00:00 PM 21.28 70.304 0.106 7.39 64.12 8.18
7/2/2022 12:15:00 PM 21.54 70.772 0.106 7.41 65.08 8.17
7/2/2022 12:30:00 PM 21.72 71.096 0.106 7.42 66.55 8.16
7/2/2022 12:45:00 PM 21.86 71.348 0.106 7.43 56.75 8.16
7/2/2022 1:00:00 PM 21.96 71.528 0.106 7.43 61.84 8.16
7/2/2022 1:15:00 PM 21.72 71.096 0.106 7.42 61.1 8.08
7/2/2022 1:30:00 PM 21.67 71.006 0.106 7.42 54.33 8.06
7/2/2022 1:45:00 PM 21.58 70.844 0.107 7.41 55.34 8.03
7/2/2022 2:00:00 PM 21.57 70.826 0.107 7.41 52.27 8.02
7/2/2022 2:15:00 PM 21.79 71.222 0.107 7.42 51.05 8.08
7/2/2022 2:30:00 PM 22.02 71.636 0.107 7.43 52.7 8.1
7/2/2022 2:45:00 PM 22.19 71.942 0.107 7.44 50.76 8.09
7/2/2022 3:00:00 PM 22.26 72.068 0.108 7.45 46.96 8.07
7/2/2022 3:15:00 PM 22.14 71.852 0.108 7.44 48.25 8.01
7/2/2022 3:30:00 PM 22.05 71.69 0.109 7.43 51.9 7.98
7/2/2022 3:45:00 PM 22.16 71.888 0.109 7.44 44.47 8.02
7/2/2022 4:00:00 PM 22.23 72.014 0.109 7.44 43.37 7.99
7/2/2022 4:15:00 PM 22.35 72.23 0.11 7.45 42.83 7.99
7/2/2022 4:30:00 PM 22.45 72.41 0.11 7.46 41.39 7.97
7/2/2022 4:45:00 PM 22.47 72.446 0.11 7.46 37.18 7.95
7/2/2022 5:00:00 PM 22.47 72.446 0.111 7.46 38.82 7.92
7/2/2022 5:15:00 PM 22.48 72.464 0.111 7.46 35.25 7.89
7/2/2022 5:30:00 PM 22.48 72.464 0.111 7.46 30.95 7.88
7/2/2022 5:45:00 PM 22.48 72.464 0.112 7.45 33.32 7.84
7/2/2022 6:00:00 PM 22.48 72.464 0.112 7.45 33.52 7.81
7/2/2022 6:15:00 PM 22.47 72.446 0.11 7.45 34.12 7.8
7/2/2022 6:30:00 PM 22.53 72.554 0.111 7.45 38.52 7.8
7/2/2022 6:45:00 PM 22.56 72.608 0.111 7.45 35.93 7.77
7/2/2022 7:00:00 PM 22.6 72.68 0.112 7.45 35.34 7.76
7/2/2022 7:15:00 PM 22.6 72.68 0.112 7.44 34.23 7.73
7/2/2022 7:30:00 PM 22.63 72.734 0.112 7.44 30.19 7.72
7/2/2022 7:45:00 PM 22.61 72.698 0.112 7.44 28.62 7.72
7/2/2022 8:00:00 PM 22.57 72.626 0.113 7.43 29.88 7.7
7/2/2022 8:15:00 PM 22.54 72.57201 0.113 7.43 29.54 7.69
7/2/2022 8:30:00 PM 22.52 72.536 0.113 7.42 27.56 7.68
7/2/2022 8:45:00 PM 22.52 72.536 0.113 7.41 27.06 7.67
7/2/2022 9:00:00 PM 22.53 72.554 0.114 7.41 26.35 7.66
7/2/2022 9:15:00 PM 22.53 72.554 0.114 7.41 24.4 7.62
7/2/2022 9:30:00 PM 22.56 72.608 0.114 7.4 24.81 7.57
7/2/2022 9:45:00 PM 22.56 72.608 0.114 7.41 23.59 7.63
7/2/2022 10:00:00 PM 22.56 72.608 0.115 7.4 22.54 7.58
7/2/2022 10:15:00 PM 22.56 72.608 0.115 7.41 21.35 7.62
7/2/2022 10:30:00 PM 22.55 72.59 0.115 7.4 20.08 7.52
7/2/2022 10:45:00 PM 22.54 72.57201 0.115 7.41 23.13 7.61
7/2/2022 11:00:00 PM 22.52 72.536 0.115 7.4 21.47 7.56
7/2/2022 11:15:00 PM 22.5 72.5 0.116 7.4 17.34 7.61
7/2/2022 11:30:00 PM 22.48 72.464 0.116 7.4 20.57 7.59
7/2/2022 11:45:00 PM 22.45 72.41 0.116 7.4 20.48 7.61
7/3/2022 12:00:00 AM 22.43 72.374 0.116 7.39 19.3 7.59
7/3/2022 12:15:00 AM 22.4 72.32 0.116 7.39 17.36 7.56
7/3/2022 12:30:00 AM 22.38 72.284 0.117 7.4 17.92 7.61
7/3/2022 12:45:00 AM 22.36 72.248 0.117 7.39 17.24 7.61
7/3/2022 1:00:00 AM 22.32 72.176 0.117 7.39 19.5 7.55
7/3/2022 1:15:00 AM 22.27 72.086 0.117 7.39 15.55 7.58
7/3/2022 1:30:00 AM 22.22 71.996 0.117 7.4 17.48 7.61
7/3/2022 1:45:00 AM 22.18 71.924 0.117 7.39 18.04 7.6
7/3/2022 2:00:00 AM 22.14 71.852 0.117 7.39 17.76 7.6
7/3/2022 2:15:00 AM 22.09 71.762 0.118 7.39 15.6 7.6
7/3/2022 2:30:00 AM 22.04 71.672 0.118 7.39 17.47 7.59
7/3/2022 2:45:00 AM 22 71.6 0.118 7.39 15.38 7.63
7/3/2022 3:00:00 AM 21.95 71.51 0.118 7.39 14.61 7.47
7/3/2022 3:15:00 AM 21.9 71.42 0.118 7.39 17.24 7.62
7/3/2022 3:30:00 AM 21.85 71.33 0.118 7.39 15.5 7.54
7/3/2022 3:45:00 AM 21.8 71.24 0.118 7.39 16.18 7.63
7/3/2022 4:00:00 AM 21.75 71.15 0.118 7.39 15.76 7.64
7/3/2022 4:15:00 AM 21.69 71.042 0.118 7.39 14.37 7.67
7/3/2022 4:30:00 AM 21.65 70.97 0.119 7.38 14.01 7.65
7/3/2022 4:45:00 AM 21.61 70.898 0.119 7.38 15.01 7.63
7/3/2022 5:00:00 AM 21.58 70.844 0.119 7.37 15.61 7.51
7/3/2022 5:15:00 AM 21.52 70.736 0.119 7.38 15.42 7.63
7/3/2022 5:30:00 AM 21.48 70.664 0.119 7.37 16.87 7.58
7/3/2022 5:45:00 AM 21.42 70.556 0.119 7.38 13.56 7.57
7/3/2022 6:00:00 AM 21.39 70.502 0.119 7.37 13.22 7.63
7/3/2022 6:15:00 AM 21.34 70.412 0.119 7.37 16.27 7.51
7/3/2022 6:30:00 AM 21.31 70.358 0.119 7.37 14.48 7.57
7/3/2022 6:45:00 AM 21.27 70.286 0.119 7.37 14.91 7.38
7/3/2022 7:00:00 AM 21.25 70.25 0.119 7.37 13.35 7.6
7/3/2022 7:15:00 AM 21.22 70.196 0.119 7.38 12.74 7.58
7/3/2022 7:30:00 AM 21.2 70.16 0.119 7.37 12.42 7.63
7/3/2022 7:45:00 AM 21.18 70.124 0.119 7.38 13 7.66
7/3/2022 8:00:00 AM 21.15 70.07 0.119 7.38 12.26 7.68
7/3/2022 8:15:00 AM 21.13 70.034 0.12 7.39 14.05 7.75
7/3/2022 8:30:00 AM 21.12 70.016 0.12 7.38 12.97 7.78
7/3/2022 8:45:00 AM 21.12 70.016 0.12 7.38 11.94 7.72
7/3/2022 9:00:00 AM 21.17 70.106 0.12 7.39 12.26 7.6
7/3/2022 9:15:00 AM 21.21 70.17799 0.12 7.4 10.95 7.78
7/3/2022 9:30:00 AM 21.27 70.286 0.12 7.4 10.7 7.77
7/3/2022 9:45:00 AM 21.33 70.394 0.12 7.41 12.92 7.84
7/3/2022 10:00:00 AM 21.45 70.61 0.12 7.42 10.31 7.85
7/3/2022 10:15:00 AM 21.55 70.79 0.12 7.42 10.69 7.84

These are provisional data and have not been subject to a quality assurance process, but rather are the raw data reported by the instrument.
H: value is above sensor operating range
L: value is below sensor operating range
Offline: station is not reporting data
NC: parameter is not collected at site

Data Availability & Limitations

Uncertainty and potential for error can be associated with environmental monitoring data. Provisional data have not been subject to a quality assurance process, but rather are the raw data reported by the instrument. Data users are cautioned to consider carefully the provisional nature of the information before using it for decisions that concern personal or public safety or the conduct of business that involves substantial monetary or operational consequences.

Approved data are currently available by request by emailing: srbc@srbc.net. Approved data have been subject to a quality assurance process to correct for equipment or fouling drift. Data recorded during equipment malfunctions have been removed.

View Historical Stations that have been discontinued.